sensor_id;sensor_type;location;lat;lon;timestamp;pressure;altitude;pressure_sealevel;temperature;humidity
12358;BME280;6243;51.244;6.774;2022-08-02T00:01:46;153557.13;;;24.09;63.18
12358;BME280;6243;51.244;6.774;2022-08-02T00:04:12;153523.66;;;23.96;64.42
12358;BME280;6243;51.244;6.774;2022-08-02T00:06:37;153444.06;;;23.65;64.76
12358;BME280;6243;51.244;6.774;2022-08-02T00:09:04;153365.78;;;23.34;65.84
12358;BME280;6243;51.244;6.774;2022-08-02T00:11:30;153428.69;;;23.59;65.44
12358;BME280;6243;51.244;6.774;2022-08-02T00:13:56;153449.19;;;23.67;64.98
12358;BME280;6243;51.244;6.774;2022-08-02T00:16:23;153510.88;;;23.91;64.00
12358;BME280;6243;51.244;6.774;2022-08-02T00:18:48;153521.13;;;23.95;63.21
12358;BME280;6243;51.244;6.774;2022-08-02T00:21:14;153505.69;;;23.89;63.30
12358;BME280;6243;51.244;6.774;2022-08-02T00:23:39;153463.34;;;23.72;63.83
12358;BME280;6243;51.244;6.774;2022-08-02T00:26:05;153464.66;;;23.73;64.04
12358;BME280;6243;51.244;6.774;2022-08-02T00:28:30;153471.03;;;23.75;64.15
12358;BME280;6243;51.244;6.774;2022-08-02T00:30:56;153465.88;;;23.73;64.75
12358;BME280;6243;51.244;6.774;2022-08-02T00:33:23;153358.03;;;23.31;66.74
12358;BME280;6243;51.244;6.774;2022-08-02T00:35:48;153465.88;;;23.73;65.11
12358;BME280;6243;51.244;6.774;2022-08-02T00:38:14;153485.16;;;23.81;64.80
12358;BME280;6243;51.244;6.774;2022-08-02T00:40:40;153410.72;;;23.52;65.10
12358;BME280;6243;51.244;6.774;2022-08-02T00:43:07;153412.00;;;23.52;65.51
12358;BME280;6243;51.244;6.774;2022-08-02T00:45:34;153365.78;;;23.34;65.88
12358;BME280;6243;51.244;6.774;2022-08-02T00:48:00;153381.19;;;23.40;66.04
12358;BME280;6243;51.244;6.774;2022-08-02T00:50:27;153435.09;;;23.61;65.50
12358;BME280;6243;51.244;6.774;2022-08-02T00:52:52;153399.16;;;23.47;66.01
12358;BME280;6243;51.244;6.774;2022-08-02T00:55:18;153427.38;;;23.58;64.90
12358;BME280;6243;51.244;6.774;2022-08-02T00:57:44;153427.38;;;23.58;65.29
12358;BME280;6243;51.244;6.774;2022-08-02T01:00:10;153413.25;;;23.53;65.54
12358;BME280;6243;51.244;6.774;2022-08-02T01:02:35;153462.06;;;23.72;64.55
12358;BME280;6243;51.244;6.774;2022-08-02T01:05:01;153464.66;;;23.73;64.15
12358;BME280;6243;51.244;6.774;2022-08-02T01:07:28;153419.66;;;23.55;65.22
12358;BME280;6243;51.244;6.774;2022-08-02T01:09:53;153455.63;;;23.69;64.80
12358;BME280;6243;51.244;6.774;2022-08-02T01:12:19;153358.03;;;23.31;66.26
12358;BME280;6243;51.244;6.774;2022-08-02T01:14:49;153401.69;;;23.48;65.63
12358;BME280;6243;51.244;6.774;2022-08-02T01:17:19;153387.59;;;23.43;65.90
12358;BME280;6243;51.244;6.774;2022-08-02T01:19:52;153447.91;;;23.66;65.07
12358;BME280;6243;51.244;6.774;2022-08-02T01:28:27;153492.88;;;23.84;64.32
12358;BME280;6243;51.244;6.774;2022-08-02T01:30:57;153403.00;;;23.49;65.23
12358;BME280;6243;51.244;6.774;2022-08-02T01:33:29;153438.94;;;23.63;65.23
12358;BME280;6243;51.244;6.774;2022-08-02T01:35:57;153413.25;;;23.53;65.43
12358;BME280;6243;51.244;6.774;2022-08-02T01:38:30;153415.84;;;23.54;65.56
12358;BME280;6243;51.244;6.774;2022-08-02T01:40:57;153420.97;;;23.56;65.75
12358;BME280;6243;51.244;6.774;2022-08-02T01:43:27;153305.41;;;23.10;67.73
12358;BME280;6243;51.244;6.774;2022-08-02T01:45:54;153370.91;;;23.36;65.93
12358;BME280;6243;51.244;6.774;2022-08-02T01:48:22;153310.53;;;23.12;67.46
12358;BME280;6243;51.244;6.774;2022-08-02T01:50:48;153385.00;;;23.42;66.86
12358;BME280;6243;51.244;6.774;2022-08-02T01:53:17;153391.44;;;23.44;66.43
12358;BME280;6243;51.244;6.774;2022-08-02T01:55:46;153451.78;;;23.68;65.49
12358;BME280;6243;51.244;6.774;2022-08-02T01:58:16;153408.13;;;23.51;65.92
12358;BME280;6243;51.244;6.774;2022-08-02T02:00:45;153422.25;;;23.56;65.48
12358;BME280;6243;51.244;6.774;2022-08-02T02:03:13;153390.16;;;23.44;66.24
12358;BME280;6243;51.244;6.774;2022-08-02T02:05:39;153381.19;;;23.40;66.67
12358;BME280;6243;51.244;6.774;2022-08-02T02:08:07;153259.19;;;22.92;67.98
12358;BME280;6243;51.244;6.774;2022-08-02T02:10:35;153298.97;;;23.08;67.99
12358;BME280;6243;51.244;6.774;2022-08-02T02:13:04;153295.16;;;23.06;67.51
12358;BME280;6243;51.244;6.774;2022-08-02T02:15:31;153275.88;;;22.99;68.14
12358;BME280;6243;51.244;6.774;2022-08-02T02:18:01;153307.94;;;23.11;67.75
12358;BME280;6243;51.244;6.774;2022-08-02T02:20:27;153331.09;;;23.20;66.77
12358;BME280;6243;51.244;6.774;2022-08-02T02:22:53;153220.69;;;22.77;69.46
12358;BME280;6243;51.244;6.774;2022-08-02T02:25:20;153184.78;;;22.63;69.85
12358;BME280;6243;51.244;6.774;2022-08-02T02:27:51;153268.16;;;22.96;68.04
12358;BME280;6243;51.244;6.774;2022-08-02T02:30:18;153187.34;;;22.64;69.33
12358;BME280;6243;51.244;6.774;2022-08-02T02:32:45;153216.84;;;22.76;68.88
12358;BME280;6243;51.244;6.774;2022-08-02T02:35:15;153202.75;;;22.70;68.69
12358;BME280;6243;51.244;6.774;2022-08-02T02:37:42;153257.91;;;22.92;67.95
12358;BME280;6243;51.244;6.774;2022-08-02T02:40:10;153221.97;;;22.78;68.58
12358;BME280;6243;51.244;6.774;2022-08-02T02:42:37;153148.81;;;22.49;70.07
12358;BME280;6243;51.244;6.774;2022-08-02T02:45:05;153179.66;;;22.61;69.71
12358;BME280;6243;51.244;6.774;2022-08-02T02:47:32;153269.47;;;22.96;67.86
12358;BME280;6243;51.244;6.774;2022-08-02T02:49:59;153171.91;;;22.58;69.27
12358;BME280;6243;51.244;6.774;2022-08-02T02:52:26;153259.19;;;22.92;68.36
12358;BME280;6243;51.244;6.774;2022-08-02T02:54:53;153256.63;;;22.91;68.01
12358;BME280;6243;51.244;6.774;2022-08-02T02:57:20;153277.19;;;22.99;67.47
12358;BME280;6243;51.244;6.774;2022-08-02T02:59:46;153270.75;;;22.97;67.37
12358;BME280;6243;51.244;6.774;2022-08-02T03:02:12;153268.16;;;22.96;67.68
12358;BME280;6243;51.244;6.774;2022-08-02T03:04:40;153254.06;;;22.90;67.72
12358;BME280;6243;51.244;6.774;2022-08-02T03:07:06;153196.34;;;22.68;68.55
12358;BME280;6243;51.244;6.774;2022-08-02T03:09:33;153088.50;;;22.25;69.81
12358;BME280;6243;51.244;6.774;2022-08-02T03:11:59;152930.72;;;21.63;73.96
12358;BME280;6243;51.244;6.774;2022-08-02T03:14:24;153029.50;;;22.02;72.06
12358;BME280;6243;51.244;6.774;2022-08-02T03:16:52;153106.47;;;22.32;70.21
12358;BME280;6243;51.244;6.774;2022-08-02T03:19:20;152996.19;;;21.89;73.63
12358;BME280;6243;51.244;6.774;2022-08-02T03:21:47;153043.63;;;22.08;71.86
12358;BME280;6243;51.244;6.774;2022-08-02T03:24:13;152953.81;;;21.72;73.28
12358;BME280;6243;51.244;6.774;2022-08-02T03:26:40;153003.88;;;21.92;73.19
12358;BME280;6243;51.244;6.774;2022-08-02T03:29:06;152971.75;;;21.79;73.67
12358;BME280;6243;51.244;6.774;2022-08-02T03:31:32;153002.59;;;21.92;73.34
12358;BME280;6243;51.244;6.774;2022-08-02T03:33:59;152939.72;;;21.67;75.30
12358;BME280;6243;51.244;6.774;2022-08-02T03:36:27;153007.72;;;21.94;73.75
12358;BME280;6243;51.244;6.774;2022-08-02T03:38:54;153039.81;;;22.06;73.54
12358;BME280;6243;51.244;6.774;2022-08-02T03:41:22;153030.81;;;22.03;74.16
12358;BME280;6243;51.244;6.774;2022-08-02T03:43:49;153074.44;;;22.20;72.84
12358;BME280;6243;51.244;6.774;2022-08-02T03:46:18;153044.94;;;22.08;74.42
12358;BME280;6243;51.244;6.774;2022-08-02T03:48:44;152978.19;;;21.82;78.13
12358;BME280;6243;51.244;6.774;2022-08-02T03:51:11;152947.38;;;21.70;80.53
12358;BME280;6243;51.244;6.774;2022-08-02T03:53:37;152985.94;;;21.85;79.14
12358;BME280;6243;51.244;6.774;2022-08-02T03:56:04;153033.38;;;22.04;78.35
12358;BME280;6243;51.244;6.774;2022-08-02T03:58:30;153005.19;;;21.93;79.04
12358;BME280;6243;51.244;6.774;2022-08-02T04:00:57;153033.38;;;22.04;79.34
12358;BME280;6243;51.244;6.774;2022-08-02T04:03:22;153084.69;;;22.24;78.11
12358;BME280;6243;51.244;6.774;2022-08-02T04:05:48;153047.47;;;22.09;80.05
12358;BME280;6243;51.244;6.774;2022-08-02T04:08:14;153084.69;;;22.24;78.12
12358;BME280;6243;51.244;6.774;2022-08-02T04:10:40;153048.75;;;22.10;80.39
12358;BME280;6243;51.244;6.774;2022-08-02T04:13:05;153071.84;;;22.19;81.04
12358;BME280;6243;51.244;6.774;2022-08-02T04:15:31;153100.06;;;22.30;80.15
12358;BME280;6243;51.244;6.774;2022-08-02T04:17:59;153080.84;;;22.22;82.96
12358;BME280;6243;51.244;6.774;2022-08-02T04:20:29;153100.06;;;22.30;82.75
12358;BME280;6243;51.244;6.774;2022-08-02T04:22:59;153125.72;;;22.40;83.04
12358;BME280;6243;51.244;6.774;2022-08-02T04:25:26;153166.78;;;22.56;82.01
12358;BME280;6243;51.244;6.774;2022-08-02T04:27:52;153033.38;;;22.04;87.85
12358;BME280;6243;51.244;6.774;2022-08-02T04:30:18;153138.56;;;22.45;82.84
12358;BME280;6243;51.244;6.774;2022-08-02T04:32:44;153189.91;;;22.65;81.72
12358;BME280;6243;51.244;6.774;2022-08-02T04:35:12;153188.63;;;22.65;82.49
12358;BME280;6243;51.244;6.774;2022-08-02T04:37:39;153200.19;;;22.69;81.67
12358;BME280;6243;51.244;6.774;2022-08-02T04:40:08;153243.81;;;22.86;80.68
12358;BME280;6243;51.244;6.774;2022-08-02T04:42:34;153275.88;;;22.99;79.73
12358;BME280;6243;51.244;6.774;2022-08-02T04:44:59;153230.97;;;22.81;81.15
12358;BME280;6243;51.244;6.774;2022-08-02T04:47:25;153110.31;;;22.34;87.32
12358;BME280;6243;51.244;6.774;2022-08-02T04:49:50;153236.09;;;22.83;82.67
12358;BME280;6243;51.244;6.774;2022-08-02T04:52:17;153263.03;;;22.94;81.78
12358;BME280;6243;51.244;6.774;2022-08-02T04:54:42;153218.13;;;22.76;82.85
12358;BME280;6243;51.244;6.774;2022-08-02T04:57:08;153283.59;;;23.02;80.53
12358;BME280;6243;51.244;6.774;2022-08-02T04:59:33;153341.34;;;23.24;78.82
12358;BME280;6243;51.244;6.774;2022-08-02T05:01:59;153277.19;;;22.99;80.17
12358;BME280;6243;51.244;6.774;2022-08-02T05:04:24;153234.81;;;22.83;82.28
12358;BME280;6243;51.244;6.774;2022-08-02T05:06:50;153252.78;;;22.90;81.79
12358;BME280;6243;51.244;6.774;2022-08-02T05:09:17;153332.34;;;23.21;79.38
12358;BME280;6243;51.244;6.774;2022-08-02T05:11:42;153256.63;;;22.91;81.68
12358;BME280;6243;51.244;6.774;2022-08-02T05:14:07;153305.41;;;23.10;81.17
12358;BME280;6243;51.244;6.774;2022-08-02T05:16:33;153379.88;;;23.40;78.92
12358;BME280;6243;51.244;6.774;2022-08-02T05:18:58;153283.59;;;23.02;80.46
12358;BME280;6243;51.244;6.774;2022-08-02T05:21:24;153336.22;;;23.22;78.57
12358;BME280;6243;51.244;6.774;2022-08-02T05:23:49;153306.69;;;23.11;80.49
12358;BME280;6243;51.244;6.774;2022-08-02T05:26:16;153138.56;;;22.45;86.13
12358;BME280;6243;51.244;6.774;2022-08-02T05:28:42;153325.91;;;23.18;80.81
12358;BME280;6243;51.244;6.774;2022-08-02T05:31:07;153298.97;;;23.08;82.08
12358;BME280;6243;51.244;6.774;2022-08-02T05:33:33;153395.28;;;23.46;77.24
12358;BME280;6243;51.244;6.774;2022-08-02T05:35:58;153437.66;;;23.62;76.21
12358;BME280;6243;51.244;6.774;2022-08-02T05:38:24;153482.56;;;23.80;74.24
12358;BME280;6243;51.244;6.774;2022-08-02T05:40:49;153518.53;;;23.94;73.82
12358;BME280;6243;51.244;6.774;2022-08-02T05:43:17;153487.75;;;23.82;74.39
12358;BME280;6243;51.244;6.774;2022-08-02T05:45:42;153381.19;;;23.40;78.68
12358;BME280;6243;51.244;6.774;2022-08-02T05:48:08;153528.84;;;23.98;74.47
12358;BME280;6243;51.244;6.774;2022-08-02T05:50:37;153505.69;;;23.89;73.33
12358;BME280;6243;51.244;6.774;2022-08-02T05:53:20;153581.50;;;24.19;73.15
12358;BME280;6243;51.244;6.774;2022-08-02T05:55:56;153654.75;;;24.47;70.89
12358;BME280;6243;51.244;6.774;2022-08-02T05:58:35;153712.56;;;24.70;69.54
12358;BME280;6243;51.244;6.774;2022-08-02T06:01:03;153693.28;;;24.62;70.22
12358;BME280;6243;51.244;6.774;2022-08-02T06:03:31;153675.28;;;24.55;69.61
12358;BME280;6243;51.244;6.774;2022-08-02T06:06:05;153668.84;;;24.53;70.55
12358;BME280;6243;51.244;6.774;2022-08-02T06:08:37;153600.78;;;24.26;72.08
12358;BME280;6243;51.244;6.774;2022-08-02T06:11:05;153742.16;;;24.82;69.06
12358;BME280;6243;51.244;6.774;2022-08-02T06:13:32;153634.16;;;24.39;69.90
12358;BME280;6243;51.244;6.774;2022-08-02T06:15:58;153584.09;;;24.20;72.40
12358;BME280;6243;51.244;6.774;2022-08-02T06:18:26;153769.13;;;24.92;69.12
12358;BME280;6243;51.244;6.774;2022-08-02T06:20:52;153857.81;;;25.27;67.36
12358;BME280;6243;51.244;6.774;2022-08-02T06:23:20;153879.66;;;25.35;66.71
12358;BME280;6243;51.244;6.774;2022-08-02T06:25:46;153756.28;;;24.87;67.57
12358;BME280;6243;51.244;6.774;2022-08-02T06:28:15;153851.38;;;25.24;67.40
12358;BME280;6243;51.244;6.774;2022-08-02T06:30:44;153946.59;;;25.62;65.14
12358;BME280;6243;51.244;6.774;2022-08-02T06:33:10;153604.63;;;24.28;69.59
12358;BME280;6243;51.244;6.774;2022-08-02T06:35:44;153769.13;;;24.92;67.78
12358;BME280;6243;51.244;6.774;2022-08-02T06:38:14;153670.16;;;24.53;67.82
12358;BME280;6243;51.244;6.774;2022-08-02T06:40:45;153792.25;;;25.01;66.71
12358;BME280;6243;51.244;6.774;2022-08-02T06:43:17;153981.28;;;25.75;64.52
12358;BME280;6243;51.244;6.774;2022-08-02T06:45:47;153816.69;;;25.11;65.20
12358;BME280;6243;51.244;6.774;2022-08-02T06:48:13;153704.84;;;24.67;68.09
12358;BME280;6243;51.244;6.774;2022-08-02T06:50:38;153719.00;;;24.73;67.24
12358;BME280;6243;51.244;6.774;2022-08-02T06:53:04;153919.53;;;25.51;64.79
12358;BME280;6243;51.244;6.774;2022-08-02T06:55:30;153980.00;;;25.75;63.29
12358;BME280;6243;51.244;6.774;2022-08-02T06:57:55;154133.09;;;26.35;61.82
12358;BME280;6243;51.244;6.774;2022-08-02T07:00:21;153987.72;;;25.78;63.33
12358;BME280;6243;51.244;6.774;2022-08-02T07:02:48;154121.50;;;26.30;61.95
12358;BME280;6243;51.244;6.774;2022-08-02T07:05:14;154151.09;;;26.42;60.94
12358;BME280;6243;51.244;6.774;2022-08-02T07:07:40;154243.78;;;26.78;59.97
12358;BME280;6243;51.244;6.774;2022-08-02T07:10:06;154232.16;;;26.73;58.97
12358;BME280;6243;51.244;6.774;2022-08-02T07:12:32;154174.25;;;26.51;59.90
12358;BME280;6243;51.244;6.774;2022-08-02T07:14:59;154157.53;;;26.44;60.83
12358;BME280;6243;51.244;6.774;2022-08-02T07:17:25;154313.25;;;27.05;59.28
12358;BME280;6243;51.244;6.774;2022-08-02T07:19:52;154211.53;;;26.65;59.00
12358;BME280;6243;51.244;6.774;2022-08-02T07:22:17;154430.44;;;27.51;57.19
12358;BME280;6243;51.244;6.774;2022-08-02T07:24:43;154394.38;;;27.37;57.49
12358;BME280;6243;51.244;6.774;2022-08-02T07:27:08;154297.84;;;26.99;56.99
12358;BME280;6243;51.244;6.774;2022-08-02T07:29:34;154394.38;;;27.37;56.59
12358;BME280;6243;51.244;6.774;2022-08-02T07:31:59;154452.31;;;27.60;56.47
12358;BME280;6243;51.244;6.774;2022-08-02T07:34:25;154621.03;;;28.26;54.68
12358;BME280;6243;51.244;6.774;2022-08-02T07:36:52;154297.84;;;26.99;57.10
12358;BME280;6243;51.244;6.774;2022-08-02T07:39:17;154516.69;;;27.85;55.15
12358;BME280;6243;51.244;6.774;2022-08-02T07:41:43;154564.38;;;28.03;53.76
12358;BME280;6243;51.244;6.774;2022-08-02T07:44:08;154564.38;;;28.03;54.26
12358;BME280;6243;51.244;6.774;2022-08-02T07:46:34;154631.31;;;28.30;52.89
12358;BME280;6243;51.244;6.774;2022-08-02T07:48:59;154684.13;;;28.50;53.15
12358;BME280;6243;51.244;6.774;2022-08-02T07:51:25;154809.19;;;28.99;51.06
12358;BME280;6243;51.244;6.774;2022-08-02T07:53:52;154575.97;;;28.08;52.38
12358;BME280;6243;51.244;6.774;2022-08-02T07:56:17;154517.97;;;27.85;53.15
12358;BME280;6243;51.244;6.774;2022-08-02T07:58:42;154693.19;;;28.54;52.47
12358;BME280;6243;51.244;6.774;2022-08-02T08:01:08;154838.81;;;29.11;51.39
12358;BME280;6243;51.244;6.774;2022-08-02T08:03:33;154877.50;;;29.26;50.93
12358;BME280;6243;51.244;6.774;2022-08-02T08:05:59;154614.59;;;28.23;52.21
12358;BME280;6243;51.244;6.774;2022-08-02T08:08:24;154923.91;;;29.44;49.91
12358;BME280;6243;51.244;6.774;2022-08-02T08:10:51;155103.19;;;30.14;48.88
12358;BME280;6243;51.244;6.774;2022-08-02T08:13:17;155011.63;;;29.78;48.91
12358;BME280;6243;51.244;6.774;2022-08-02T08:15:42;155175.44;;;30.42;47.15
12358;BME280;6243;51.244;6.774;2022-08-02T08:18:08;155215.41;;;30.58;46.84
12358;BME280;6243;51.244;6.774;2022-08-02T08:20:34;155237.38;;;30.66;46.58
12358;BME280;6243;51.244;6.774;2022-08-02T08:22:59;155338.00;;;31.06;46.49
12358;BME280;6243;51.244;6.774;2022-08-02T08:25:25;155205.09;;;30.54;45.75
12358;BME280;6243;51.244;6.774;2022-08-02T08:27:52;155148.31;;;30.32;46.80
12358;BME280;6243;51.244;6.774;2022-08-02T08:30:19;155464.56;;;31.55;44.64
12358;BME280;6243;51.244;6.774;2022-08-02T08:32:45;155529.09;;;31.80;44.61
12358;BME280;6243;51.244;6.774;2022-08-02T08:35:10;155602.69;;;32.09;42.92
12358;BME280;6243;51.244;6.774;2022-08-02T08:37:37;155579.47;;;32.00;42.28
12358;BME280;6243;51.244;6.774;2022-08-02T08:40:03;155629.84;;;32.19;41.70
12358;BME280;6243;51.244;6.774;2022-08-02T08:42:30;155562.63;;;31.93;42.24
12358;BME280;6243;51.244;6.774;2022-08-02T08:44:58;155385.75;;;31.24;43.03
12358;BME280;6243;51.244;6.774;2022-08-02T08:47:30;155548.41;;;31.88;42.75
12358;BME280;6243;51.244;6.774;2022-08-02T08:50:00;155738.34;;;32.62;41.64
12358;BME280;6243;51.244;6.774;2022-08-02T08:52:27;155770.59;;;32.74;41.38
12358;BME280;6243;51.244;6.774;2022-08-02T08:54:56;155956.72;;;33.47;40.12
12358;BME280;6243;51.244;6.774;2022-08-02T08:57:22;155784.84;;;32.80;40.74
12358;BME280;6243;51.244;6.774;2022-08-02T08:59:47;155987.75;;;33.59;39.81
12358;BME280;6243;51.244;6.774;2022-08-02T09:02:14;156124.81;;;34.12;39.55
12358;BME280;6243;51.244;6.774;2022-08-02T09:04:40;156054.97;;;33.85;39.17
12358;BME280;6243;51.244;6.774;2022-08-02T09:07:05;156051.13;;;33.84;39.22
12358;BME280;6243;51.244;6.774;2022-08-02T09:09:30;156120.97;;;34.11;38.23
12358;BME280;6243;51.244;6.774;2022-08-02T09:12:12;155835.19;;;33.00;39.51
12358;BME280;6243;51.244;6.774;2022-08-02T09:14:37;155845.63;;;33.04;40.11
12358;BME280;6243;51.244;6.774;2022-08-02T09:17:06;155822.31;;;32.95;39.98
12358;BME280;6243;51.244;6.774;2022-08-02T09:19:34;155952.81;;;33.45;39.64
12358;BME280;6243;51.244;6.774;2022-08-02T09:22:01;156164.88;;;34.28;37.92
12358;BME280;6243;51.244;6.774;2022-08-02T09:24:27;156227.03;;;34.52;38.08
12358;BME280;6243;51.244;6.774;2022-08-02T09:26:52;156364.13;;;35.06;36.91
12358;BME280;6243;51.244;6.774;2022-08-02T09:29:21;156432.66;;;35.32;37.00
12358;BME280;6243;51.244;6.774;2022-08-02T09:31:48;156541.41;;;35.75;36.43
12358;BME280;6243;51.244;6.774;2022-08-02T09:34:14;156554.34;;;35.80;35.80
12358;BME280;6243;51.244;6.774;2022-08-02T09:36:43;156591.84;;;35.94;35.79
12358;BME280;6243;51.244;6.774;2022-08-02T09:39:10;156384.84;;;35.14;35.79
12358;BME280;6243;51.244;6.774;2022-08-02T09:41:39;156537.53;;;35.73;35.25
12358;BME280;6243;51.244;6.774;2022-08-02T09:44:04;156567.31;;;35.85;35.37
12358;BME280;6243;51.244;6.774;2022-08-02T09:46:31;156564.69;;;35.84;36.43
12358;BME280;6243;51.244;6.774;2022-08-02T09:48:58;156682.50;;;36.29;35.75
12358;BME280;6243;51.244;6.774;2022-08-02T09:51:26;156564.69;;;35.84;35.53
12358;BME280;6243;51.244;6.774;2022-08-02T09:53:57;156573.72;;;35.87;35.17
12358;BME280;6243;51.244;6.774;2022-08-02T09:56:25;156507.78;;;35.61;34.66
12358;BME280;6243;51.244;6.774;2022-08-02T09:58:51;156681.22;;;36.29;34.63
12358;BME280;6243;51.244;6.774;2022-08-02T10:01:17;156353.78;;;35.02;35.76
12358;BME280;6243;51.244;6.774;2022-08-02T10:03:56;156516.81;;;35.65;35.51
12358;BME280;6243;51.244;6.774;2022-08-02T10:06:22;156641.09;;;36.13;34.80
12358;BME280;6243;51.244;6.774;2022-08-02T10:08:48;156219.19;;;34.49;35.84
12358;BME280;6243;51.244;6.774;2022-08-02T10:11:15;156130.00;;;34.14;36.19
12358;BME280;6243;51.244;6.774;2022-08-02T10:13:42;156374.47;;;35.10;34.78
12358;BME280;6243;51.244;6.774;2022-08-02T10:16:07;156088.56;;;33.98;35.75
12358;BME280;6243;51.244;6.774;2022-08-02T10:18:33;156348.56;;;35.00;35.37
12358;BME280;6243;51.244;6.774;2022-08-02T10:21:00;156511.66;;;35.63;35.23
12358;BME280;6243;51.244;6.774;2022-08-02T10:23:28;156642.41;;;36.14;34.78
12358;BME280;6243;51.244;6.774;2022-08-02T10:25:59;156749.84;;;36.56;33.06
12358;BME280;6243;51.244;6.774;2022-08-02T10:28:28;156764.13;;;36.61;32.56
12358;BME280;6243;51.244;6.774;2022-08-02T10:30:54;156817.19;;;36.82;32.71
12358;BME280;6243;51.244;6.774;2022-08-02T10:33:20;156808.09;;;36.78;32.47
12358;BME280;6243;51.244;6.774;2022-08-02T10:35:49;156906.59;;;37.17;32.25
12358;BME280;6243;51.244;6.774;2022-08-02T10:38:17;156962.31;;;37.38;31.81
12358;BME280;6243;51.244;6.774;2022-08-02T10:40:47;156999.88;;;37.53;32.11
12358;BME280;6243;51.244;6.774;2022-08-02T10:43:41;156699.34;;;36.36;32.37
12358;BME280;6243;51.244;6.774;2022-08-02T10:46:30;156919.56;;;37.22;32.43
12358;BME280;6243;51.244;6.774;2022-08-02T10:49:08;156966.22;;;37.40;31.96
12358;BME280;6243;51.244;6.774;2022-08-02T10:51:57;157051.69;;;37.73;31.76
12358;BME280;6243;51.244;6.774;2022-08-02T10:54:32;157112.63;;;37.97;31.25
12358;BME280;6243;51.244;6.774;2022-08-02T10:56:59;157218.94;;;38.38;31.66
12358;BME280;6243;51.244;6.774;2022-08-02T10:59:28;157124.28;;;38.01;30.68
12358;BME280;6243;51.244;6.774;2022-08-02T11:01:54;157015.41;;;37.59;30.21
12358;BME280;6243;51.244;6.774;2022-08-02T11:04:20;157051.69;;;37.73;31.33
12358;BME280;6243;51.244;6.774;2022-08-02T11:07:11;156581.50;;;35.90;32.16
12358;BME280;6243;51.244;6.774;2022-08-02T11:09:37;156894.94;;;37.12;31.77
12358;BME280;6243;51.244;6.774;2022-08-02T11:12:04;157025.75;;;37.63;31.75
12358;BME280;6243;51.244;6.774;2022-08-02T11:14:33;157038.72;;;37.68;31.71
12358;BME280;6243;51.244;6.774;2022-08-02T11:17:06;157098.38;;;37.91;30.96
12358;BME280;6243;51.244;6.774;2022-08-02T11:19:32;157076.34;;;37.83;30.59
12358;BME280;6243;51.244;6.774;2022-08-02T11:22:02;157100.97;;;37.92;30.80
12358;BME280;6243;51.244;6.774;2022-08-02T11:24:30;157133.34;;;38.05;30.32
12358;BME280;6243;51.244;6.774;2022-08-02T11:26:57;157085.41;;;37.86;30.59
12358;BME280;6243;51.244;6.774;2022-08-02T11:29:33;157068.50;;;37.80;30.51
12358;BME280;6243;51.244;6.774;2022-08-02T11:31:58;157161.84;;;38.16;30.87
12358;BME280;6243;51.244;6.774;2022-08-02T11:34:24;157155.34;;;38.13;30.63
12358;BME280;6243;51.244;6.774;2022-08-02T11:36:51;157043.91;;;37.70;30.21
12358;BME280;6243;51.244;6.774;2022-08-02T11:39:18;157069.81;;;37.80;30.74
12358;BME280;6243;51.244;6.774;2022-08-02T11:41:48;157155.34;;;38.13;30.85
12358;BME280;6243;51.244;6.774;2022-08-02T11:44:13;157106.16;;;37.94;30.01
12358;BME280;6243;51.244;6.774;2022-08-02T11:46:41;157002.44;;;37.54;30.08
12358;BME280;6243;51.244;6.774;2022-08-02T11:49:16;157043.91;;;37.70;29.93
12358;BME280;6243;51.244;6.774;2022-08-02T11:51:53;157090.56;;;37.88;29.89
12358;BME280;6243;51.244;6.774;2022-08-02T11:54:22;157110.03;;;37.96;30.36
12358;BME280;6243;51.244;6.774;2022-08-02T11:56:48;157222.81;;;38.40;30.27
12358;BME280;6243;51.244;6.774;2022-08-02T11:59:13;157204.66;;;38.32;29.75
12358;BME280;6243;51.244;6.774;2022-08-02T12:01:40;157266.84;;;38.57;29.78
12358;BME280;6243;51.244;6.774;2022-08-02T12:04:07;157251.31;;;38.51;29.92
12358;BME280;6243;51.244;6.774;2022-08-02T12:06:33;157275.94;;;38.60;29.10
12358;BME280;6243;51.244;6.774;2022-08-02T12:09:02;157207.28;;;38.33;29.04
12358;BME280;6243;51.244;6.774;2022-08-02T12:11:28;157204.66;;;38.32;28.79
12358;BME280;6243;51.244;6.774;2022-08-02T12:13:54;157204.66;;;38.32;29.88
12358;BME280;6243;51.244;6.774;2022-08-02T12:16:20;157238.34;;;38.46;29.43
12358;BME280;6243;51.244;6.774;2022-08-02T12:18:48;157152.78;;;38.12;29.40
12358;BME280;6243;51.244;6.774;2022-08-02T12:21:21;157207.28;;;38.33;28.63
12358;BME280;6243;51.244;6.774;2022-08-02T12:23:47;157348.53;;;38.88;28.69
12358;BME280;6243;51.244;6.774;2022-08-02T12:26:12;157436.72;;;39.23;28.63
12358;BME280;6243;51.244;6.774;2022-08-02T12:28:38;157492.50;;;39.44;28.65
12358;BME280;6243;51.244;6.774;2022-08-02T12:31:05;157469.16;;;39.35;28.18
12358;BME280;6243;51.244;6.774;2022-08-02T12:33:44;157272.03;;;38.59;28.54
12358;BME280;6243;51.244;6.774;2022-08-02T12:36:15;157387.44;;;39.03;28.05
12358;BME280;6243;51.244;6.774;2022-08-02T12:38:49;157250.00;;;38.50;28.25
12358;BME280;6243;51.244;6.774;2022-08-02T12:41:14;157361.50;;;38.93;28.11
12358;BME280;6243;51.244;6.774;2022-08-02T12:43:41;157204.66;;;38.32;28.82
12358;BME280;6243;51.244;6.774;2022-08-02T12:46:14;157123.00;;;38.01;27.99
12358;BME280;6243;51.244;6.774;2022-08-02T12:48:40;157099.66;;;37.92;28.34
12358;BME280;6243;51.244;6.774;2022-08-02T12:51:20;157121.69;;;38.00;28.86
12358;BME280;6243;51.244;6.774;2022-08-02T12:53:47;157265.59;;;38.56;28.75
12358;BME280;6243;51.244;6.774;2022-08-02T12:56:25;157253.91;;;38.52;28.02
12358;BME280;6243;51.244;6.774;2022-08-02T12:58:51;157305.81;;;38.72;28.31
12358;BME280;6243;51.244;6.774;2022-08-02T13:01:20;157273.31;;;38.59;27.97
12358;BME280;6243;51.244;6.774;2022-08-02T13:03:46;157257.78;;;38.53;29.14
12358;BME280;6243;51.244;6.774;2022-08-02T13:06:11;157357.63;;;38.92;28.83
12358;BME280;6243;51.244;6.774;2022-08-02T13:08:39;157290.16;;;38.66;29.32